sensor_id;sensor_type;location;lat;lon;timestamp;P1;durP1;ratioP1;P2;durP2;ratioP2
18853;SDS011;9556;49.374;19.446;2023-02-24T00:02:39;5.70;;;2.90;;
18853;SDS011;9556;49.374;19.446;2023-02-24T00:05:06;5.03;;;2.78;;
18853;SDS011;9556;49.374;19.446;2023-02-24T00:07:35;4.57;;;2.63;;
18853;SDS011;9556;49.374;19.446;2023-02-24T00:10:02;4.03;;;2.80;;
18853;SDS011;9556;49.374;19.446;2023-02-24T00:12:31;5.47;;;2.92;;
18853;SDS011;9556;49.374;19.446;2023-02-24T00:14:58;5.10;;;2.90;;
18853;SDS011;9556;49.374;19.446;2023-02-24T00:17:26;4.07;;;2.72;;
18853;SDS011;9556;49.374;19.446;2023-02-24T00:19:54;4.82;;;2.90;;
18853;SDS011;9556;49.374;19.446;2023-02-24T00:22:21;5.20;;;3.38;;
18853;SDS011;9556;49.374;19.446;2023-02-24T00:24:50;7.20;;;3.00;;
18853;SDS011;9556;49.374;19.446;2023-02-24T00:27:19;4.45;;;2.92;;
18853;SDS011;9556;49.374;19.446;2023-02-24T00:29:46;3.67;;;2.58;;
18853;SDS011;9556;49.374;19.446;2023-02-24T00:32:13;4.15;;;2.80;;
18853;SDS011;9556;49.374;19.446;2023-02-24T00:34:41;4.75;;;2.97;;
18853;SDS011;9556;49.374;19.446;2023-02-24T00:37:08;5.15;;;3.30;;
18853;SDS011;9556;49.374;19.446;2023-02-24T00:39:36;4.10;;;2.80;;
18853;SDS011;9556;49.374;19.446;2023-02-24T00:42:06;5.28;;;3.00;;
18853;SDS011;9556;49.374;19.446;2023-02-24T00:44:34;4.88;;;2.92;;
18853;SDS011;9556;49.374;19.446;2023-02-24T00:47:03;3.88;;;2.72;;
18853;SDS011;9556;49.374;19.446;2023-02-24T00:49:31;5.57;;;2.90;;
18853;SDS011;9556;49.374;19.446;2023-02-24T00:51:59;3.55;;;2.63;;
18853;SDS011;9556;49.374;19.446;2023-02-24T00:54:28;3.72;;;2.53;;
18853;SDS011;9556;49.374;19.446;2023-02-24T00:56:56;5.85;;;3.20;;
18853;SDS011;9556;49.374;19.446;2023-02-24T00:59:24;6.03;;;2.78;;
18853;SDS011;9556;49.374;19.446;2023-02-24T01:01:53;4.47;;;2.92;;
18853;SDS011;9556;49.374;19.446;2023-02-24T01:04:20;3.75;;;2.78;;
18853;SDS011;9556;49.374;19.446;2023-02-24T01:06:48;6.38;;;2.75;;
18853;SDS011;9556;49.374;19.446;2023-02-24T01:09:17;4.43;;;2.95;;
18853;SDS011;9556;49.374;19.446;2023-02-24T01:11:45;5.35;;;3.20;;
18853;SDS011;9556;49.374;19.446;2023-02-24T01:14:32;5.30;;;2.85;;
18853;SDS011;9556;49.374;19.446;2023-02-24T01:16:59;3.80;;;2.95;;
18853;SDS011;9556;49.374;19.446;2023-02-24T01:19:28;5.82;;;3.30;;
18853;SDS011;9556;49.374;19.446;2023-02-24T01:21:55;4.28;;;2.70;;
18853;SDS011;9556;49.374;19.446;2023-02-24T01:24:23;3.33;;;2.47;;
18853;SDS011;9556;49.374;19.446;2023-02-24T01:26:50;4.15;;;2.75;;
18853;SDS011;9556;49.374;19.446;2023-02-24T01:29:18;3.45;;;2.58;;
18853;SDS011;9556;49.374;19.446;2023-02-24T01:31:48;3.63;;;2.70;;
18853;SDS011;9556;49.374;19.446;2023-02-24T01:34:16;4.28;;;2.65;;
18853;SDS011;9556;49.374;19.446;2023-02-24T01:36:44;3.60;;;2.63;;
18853;SDS011;9556;49.374;19.446;2023-02-24T01:39:11;4.53;;;2.90;;
18853;SDS011;9556;49.374;19.446;2023-02-24T01:41:39;4.90;;;2.70;;
18853;SDS011;9556;49.374;19.446;2023-02-24T01:46:52;4.05;;;2.90;;
18853;SDS011;9556;49.374;19.446;2023-02-24T01:49:20;4.03;;;2.70;;
18853;SDS011;9556;49.374;19.446;2023-02-24T01:51:49;4.93;;;2.55;;
18853;SDS011;9556;49.374;19.446;2023-02-24T01:54:18;4.40;;;2.83;;
18853;SDS011;9556;49.374;19.446;2023-02-24T01:56:47;4.22;;;2.63;;
18853;SDS011;9556;49.374;19.446;2023-02-24T01:59:15;3.33;;;2.40;;
18853;SDS011;9556;49.374;19.446;2023-02-24T02:01:43;4.85;;;2.47;;
18853;SDS011;9556;49.374;19.446;2023-02-24T02:04:15;2.70;;;2.13;;
18853;SDS011;9556;49.374;19.446;2023-02-24T02:06:44;4.20;;;2.60;;
18853;SDS011;9556;49.374;19.446;2023-02-24T02:09:11;3.22;;;2.42;;
18853;SDS011;9556;49.374;19.446;2023-02-24T02:11:40;3.75;;;2.40;;
18853;SDS011;9556;49.374;19.446;2023-02-24T02:14:10;3.90;;;2.70;;
18853;SDS011;9556;49.374;19.446;2023-02-24T02:16:44;3.08;;;2.17;;
18853;SDS011;9556;49.374;19.446;2023-02-24T02:19:26;3.22;;;2.05;;
18853;SDS011;9556;49.374;19.446;2023-02-24T02:22:00;2.70;;;2.20;;
18853;SDS011;9556;49.374;19.446;2023-02-24T02:24:38;3.42;;;2.00;;
18853;SDS011;9556;49.374;19.446;2023-02-24T02:30:00;4.15;;;2.30;;
18853;SDS011;9556;49.374;19.446;2023-02-24T02:32:45;3.22;;;2.00;;
18853;SDS011;9556;49.374;19.446;2023-02-24T02:35:18;3.03;;;2.17;;
18853;SDS011;9556;49.374;19.446;2023-02-24T02:37:49;2.17;;;1.98;;
18853;SDS011;9556;49.374;19.446;2023-02-24T02:40:21;2.22;;;1.85;;
18853;SDS011;9556;49.374;19.446;2023-02-24T02:42:51;2.65;;;2.05;;
18853;SDS011;9556;49.374;19.446;2023-02-24T02:45:23;2.67;;;2.00;;
18853;SDS011;9556;49.374;19.446;2023-02-24T02:47:52;3.03;;;2.10;;
18853;SDS011;9556;49.374;19.446;2023-02-24T02:50:22;2.08;;;1.80;;
18853;SDS011;9556;49.374;19.446;2023-02-24T02:52:52;2.33;;;2.00;;
18853;SDS011;9556;49.374;19.446;2023-02-24T02:55:21;3.15;;;2.05;;
18853;SDS011;9556;49.374;19.446;2023-02-24T02:57:52;3.17;;;2.08;;
18853;SDS011;9556;49.374;19.446;2023-02-24T03:00:21;3.13;;;2.00;;
18853;SDS011;9556;49.374;19.446;2023-02-24T03:02:53;2.85;;;1.90;;
18853;SDS011;9556;49.374;19.446;2023-02-24T03:05:23;3.47;;;1.85;;
18853;SDS011;9556;49.374;19.446;2023-02-24T03:07:53;2.65;;;1.77;;
18853;SDS011;9556;49.374;19.446;2023-02-24T03:10:24;2.67;;;1.75;;
18853;SDS011;9556;49.374;19.446;2023-02-24T03:12:52;2.42;;;1.85;;
18853;SDS011;9556;49.374;19.446;2023-02-24T03:15:21;2.10;;;1.83;;
18853;SDS011;9556;49.374;19.446;2023-02-24T03:17:50;2.55;;;1.80;;
18853;SDS011;9556;49.374;19.446;2023-02-24T03:20:21;2.53;;;2.05;;
18853;SDS011;9556;49.374;19.446;2023-02-24T03:22:55;2.15;;;1.80;;
18853;SDS011;9556;49.374;19.446;2023-02-24T03:25:27;1.98;;;1.77;;
18853;SDS011;9556;49.374;19.446;2023-02-24T03:27:58;2.05;;;1.70;;
18853;SDS011;9556;49.374;19.446;2023-02-24T03:30:31;2.20;;;1.60;;
18853;SDS011;9556;49.374;19.446;2023-02-24T03:33:03;2.42;;;1.70;;
18853;SDS011;9556;49.374;19.446;2023-02-24T03:35:35;2.63;;;2.00;;
18853;SDS011;9556;49.374;19.446;2023-02-24T03:38:05;2.73;;;2.00;;
18853;SDS011;9556;49.374;19.446;2023-02-24T03:40:34;2.63;;;1.60;;
18853;SDS011;9556;49.374;19.446;2023-02-24T03:43:04;2.60;;;1.90;;
18853;SDS011;9556;49.374;19.446;2023-02-24T03:45:33;3.75;;;1.88;;
18853;SDS011;9556;49.374;19.446;2023-02-24T03:48:03;2.72;;;1.88;;
18853;SDS011;9556;49.374;19.446;2023-02-24T03:50:31;2.25;;;1.70;;
18853;SDS011;9556;49.374;19.446;2023-02-24T03:52:59;2.03;;;1.70;;
18853;SDS011;9556;49.374;19.446;2023-02-24T03:55:33;2.08;;;1.60;;
18853;SDS011;9556;49.374;19.446;2023-02-24T03:58:08;2.00;;;1.60;;
18853;SDS011;9556;49.374;19.446;2023-02-24T04:00:39;1.90;;;1.63;;
18853;SDS011;9556;49.374;19.446;2023-02-24T04:03:15;2.10;;;1.50;;
18853;SDS011;9556;49.374;19.446;2023-02-24T04:05:50;1.80;;;1.60;;
18853;SDS011;9556;49.374;19.446;2023-02-24T04:08:20;2.55;;;1.70;;
18853;SDS011;9556;49.374;19.446;2023-02-24T04:10:50;2.00;;;1.60;;
18853;SDS011;9556;49.374;19.446;2023-02-24T04:13:19;2.38;;;1.98;;
18853;SDS011;9556;49.374;19.446;2023-02-24T04:15:49;2.42;;;1.80;;
18853;SDS011;9556;49.374;19.446;2023-02-24T04:18:22;1.60;;;1.50;;
18853;SDS011;9556;49.374;19.446;2023-02-24T04:20:51;1.90;;;1.50;;
18853;SDS011;9556;49.374;19.446;2023-02-24T04:23:20;2.42;;;1.75;;
18853;SDS011;9556;49.374;19.446;2023-02-24T04:25:51;1.83;;;1.48;;
18853;SDS011;9556;49.374;19.446;2023-02-24T04:28:20;1.95;;;1.55;;
18853;SDS011;9556;49.374;19.446;2023-02-24T04:30:49;2.30;;;1.80;;
18853;SDS011;9556;49.374;19.446;2023-02-24T04:33:17;3.20;;;1.75;;
18853;SDS011;9556;49.374;19.446;2023-02-24T04:35:44;1.67;;;1.57;;
18853;SDS011;9556;49.374;19.446;2023-02-24T04:38:11;2.05;;;1.42;;
18853;SDS011;9556;49.374;19.446;2023-02-24T04:40:39;1.73;;;1.60;;
18853;SDS011;9556;49.374;19.446;2023-02-24T04:43:08;1.70;;;1.40;;
18853;SDS011;9556;49.374;19.446;2023-02-24T04:45:37;2.20;;;1.70;;
18853;SDS011;9556;49.374;19.446;2023-02-24T04:48:05;3.30;;;1.77;;
18853;SDS011;9556;49.374;19.446;2023-02-24T04:50:37;2.42;;;1.65;;
18853;SDS011;9556;49.374;19.446;2023-02-24T04:53:05;2.00;;;1.75;;
18853;SDS011;9556;49.374;19.446;2023-02-24T04:55:50;2.40;;;1.90;;
18853;SDS011;9556;49.374;19.446;2023-02-24T04:58:20;2.00;;;1.67;;
18853;SDS011;9556;49.374;19.446;2023-02-24T05:00:48;2.03;;;1.53;;
18853;SDS011;9556;49.374;19.446;2023-02-24T05:03:16;2.37;;;1.70;;
18853;SDS011;9556;49.374;19.446;2023-02-24T05:05:48;2.30;;;1.77;;
18853;SDS011;9556;49.374;19.446;2023-02-24T05:08:17;2.83;;;1.90;;
18853;SDS011;9556;49.374;19.446;2023-02-24T05:10:45;2.88;;;1.90;;
18853;SDS011;9556;49.374;19.446;2023-02-24T05:13:13;1.98;;;1.67;;
18853;SDS011;9556;49.374;19.446;2023-02-24T05:15:43;3.40;;;2.20;;
18853;SDS011;9556;49.374;19.446;2023-02-24T05:18:10;2.45;;;2.00;;
18853;SDS011;9556;49.374;19.446;2023-02-24T05:20:40;2.60;;;1.97;;
18853;SDS011;9556;49.374;19.446;2023-02-24T05:23:26;2.17;;;1.73;;
18853;SDS011;9556;49.374;19.446;2023-02-24T05:25:55;2.43;;;1.87;;
18853;SDS011;9556;49.374;19.446;2023-02-24T05:28:23;2.55;;;1.90;;
18853;SDS011;9556;49.374;19.446;2023-02-24T05:30:52;2.47;;;1.80;;
18853;SDS011;9556;49.374;19.446;2023-02-24T05:33:20;3.17;;;1.93;;
18853;SDS011;9556;49.374;19.446;2023-02-24T05:35:47;2.15;;;1.80;;
18853;SDS011;9556;49.374;19.446;2023-02-24T05:38:15;7.68;;;1.58;;
18853;SDS011;9556;49.374;19.446;2023-02-24T05:40:43;3.20;;;1.80;;
18853;SDS011;9556;49.374;19.446;2023-02-24T05:43:12;2.73;;;1.60;;
18853;SDS011;9556;49.374;19.446;2023-02-24T05:45:42;2.20;;;1.60;;
18853;SDS011;9556;49.374;19.446;2023-02-24T05:48:10;2.50;;;1.73;;
18853;SDS011;9556;49.374;19.446;2023-02-24T05:50:39;2.27;;;1.70;;
18853;SDS011;9556;49.374;19.446;2023-02-24T05:53:10;4.07;;;1.53;;
18853;SDS011;9556;49.374;19.446;2023-02-24T05:55:37;3.17;;;1.73;;
18853;SDS011;9556;49.374;19.446;2023-02-24T05:58:04;2.60;;;1.77;;
18853;SDS011;9556;49.374;19.446;2023-02-24T06:00:32;4.73;;;1.73;;
18853;SDS011;9556;49.374;19.446;2023-02-24T06:03:03;2.60;;;1.70;;
18853;SDS011;9556;49.374;19.446;2023-02-24T06:05:35;3.53;;;1.60;;
18853;SDS011;9556;49.374;19.446;2023-02-24T06:08:03;4.73;;;2.00;;
18853;SDS011;9556;49.374;19.446;2023-02-24T06:10:36;2.83;;;1.75;;
18853;SDS011;9556;49.374;19.446;2023-02-24T06:13:04;5.50;;;1.80;;
18853;SDS011;9556;49.374;19.446;2023-02-24T06:15:32;3.77;;;1.80;;
18853;SDS011;9556;49.374;19.446;2023-02-24T06:17:59;4.73;;;2.00;;
18853;SDS011;9556;49.374;19.446;2023-02-24T06:20:27;2.63;;;1.90;;
18853;SDS011;9556;49.374;19.446;2023-02-24T06:22:58;5.28;;;1.92;;
18853;SDS011;9556;49.374;19.446;2023-02-24T06:25:26;6.80;;;2.07;;
18853;SDS011;9556;49.374;19.446;2023-02-24T06:27:54;7.63;;;2.73;;
18853;SDS011;9556;49.374;19.446;2023-02-24T06:30:25;4.10;;;2.03;;
18853;SDS011;9556;49.374;19.446;2023-02-24T06:32:53;6.35;;;1.90;;
18853;SDS011;9556;49.374;19.446;2023-02-24T06:35:21;2.88;;;2.00;;
18853;SDS011;9556;49.374;19.446;2023-02-24T06:37:48;2.70;;;1.80;;
18853;SDS011;9556;49.374;19.446;2023-02-24T06:40:17;2.93;;;1.70;;
18853;SDS011;9556;49.374;19.446;2023-02-24T06:42:44;3.07;;;1.60;;
18853;SDS011;9556;49.374;19.446;2023-02-24T06:45:12;2.72;;;1.77;;
18853;SDS011;9556;49.374;19.446;2023-02-24T06:47:40;4.15;;;1.90;;
18853;SDS011;9556;49.374;19.446;2023-02-24T06:50:08;1.77;;;1.55;;
18853;SDS011;9556;49.374;19.446;2023-02-24T06:52:36;2.38;;;1.90;;
18853;SDS011;9556;49.374;19.446;2023-02-24T06:55:05;3.63;;;2.13;;
18853;SDS011;9556;49.374;19.446;2023-02-24T06:57:50;2.63;;;1.90;;
18853;SDS011;9556;49.374;19.446;2023-02-24T07:00:21;2.60;;;1.90;;
18853;SDS011;9556;49.374;19.446;2023-02-24T07:02:52;2.22;;;1.75;;
18853;SDS011;9556;49.374;19.446;2023-02-24T07:05:20;2.90;;;1.95;;
18853;SDS011;9556;49.374;19.446;2023-02-24T07:07:48;4.45;;;2.00;;
18853;SDS011;9556;49.374;19.446;2023-02-24T07:10:15;4.18;;;1.90;;
18853;SDS011;9556;49.374;19.446;2023-02-24T07:12:42;4.00;;;2.23;;
18853;SDS011;9556;49.374;19.446;2023-02-24T07:15:11;3.13;;;2.05;;
18853;SDS011;9556;49.374;19.446;2023-02-24T07:17:40;2.92;;;2.03;;
18853;SDS011;9556;49.374;19.446;2023-02-24T07:20:08;5.05;;;2.00;;
18853;SDS011;9556;49.374;19.446;2023-02-24T07:22:49;4.22;;;2.50;;
18853;SDS011;9556;49.374;19.446;2023-02-24T07:25:16;5.32;;;3.10;;
18853;SDS011;9556;49.374;19.446;2023-02-24T07:27:57;3.78;;;2.70;;
18853;SDS011;9556;49.374;19.446;2023-02-24T07:30:27;3.60;;;2.85;;
18853;SDS011;9556;49.374;19.446;2023-02-24T07:32:55;4.30;;;2.77;;
18853;SDS011;9556;49.374;19.446;2023-02-24T07:35:22;3.55;;;2.40;;
18853;SDS011;9556;49.374;19.446;2023-02-24T07:37:49;3.85;;;2.33;;
18853;SDS011;9556;49.374;19.446;2023-02-24T07:40:17;4.13;;;2.10;;
18853;SDS011;9556;49.374;19.446;2023-02-24T07:42:46;2.63;;;2.10;;
18853;SDS011;9556;49.374;19.446;2023-02-24T07:45:13;4.03;;;2.23;;
18853;SDS011;9556;49.374;19.446;2023-02-24T07:47:42;3.60;;;2.20;;
18853;SDS011;9556;49.374;19.446;2023-02-24T07:50:10;4.30;;;2.15;;
18853;SDS011;9556;49.374;19.446;2023-02-24T07:52:42;5.30;;;2.50;;
18853;SDS011;9556;49.374;19.446;2023-02-24T07:55:10;2.85;;;1.73;;
18853;SDS011;9556;49.374;19.446;2023-02-24T07:57:37;2.10;;;1.90;;
18853;SDS011;9556;49.374;19.446;2023-02-24T08:00:06;2.70;;;2.03;;
18853;SDS011;9556;49.374;19.446;2023-02-24T08:02:45;5.00;;;2.22;;
18853;SDS011;9556;49.374;19.446;2023-02-24T08:05:13;4.13;;;2.20;;
18853;SDS011;9556;49.374;19.446;2023-02-24T08:07:41;6.40;;;2.17;;
18853;SDS011;9556;49.374;19.446;2023-02-24T08:10:14;5.30;;;2.23;;
18853;SDS011;9556;49.374;19.446;2023-02-24T08:12:49;5.28;;;2.33;;
18853;SDS011;9556;49.374;19.446;2023-02-24T08:15:18;3.38;;;2.60;;
18853;SDS011;9556;49.374;19.446;2023-02-24T08:17:50;4.53;;;2.20;;
18853;SDS011;9556;49.374;19.446;2023-02-24T08:20:17;5.18;;;2.40;;
18853;SDS011;9556;49.374;19.446;2023-02-24T08:22:49;5.47;;;2.33;;
18853;SDS011;9556;49.374;19.446;2023-02-24T08:25:17;4.05;;;2.70;;
18853;SDS011;9556;49.374;19.446;2023-02-24T08:27:47;6.10;;;2.95;;
18853;SDS011;9556;49.374;19.446;2023-02-24T08:30:20;4.32;;;2.50;;
18853;SDS011;9556;49.374;19.446;2023-02-24T08:32:50;4.25;;;3.00;;
18853;SDS011;9556;49.374;19.446;2023-02-24T08:35:21;3.75;;;2.80;;
18853;SDS011;9556;49.374;19.446;2023-02-24T08:37:50;5.65;;;2.53;;
18853;SDS011;9556;49.374;19.446;2023-02-24T08:40:18;4.22;;;2.53;;
18853;SDS011;9556;49.374;19.446;2023-02-24T08:43:03;3.55;;;2.30;;
18853;SDS011;9556;49.374;19.446;2023-02-24T08:45:40;4.40;;;2.65;;
18853;SDS011;9556;49.374;19.446;2023-02-24T08:48:09;4.57;;;2.28;;
18853;SDS011;9556;49.374;19.446;2023-02-24T08:50:50;3.25;;;2.30;;
18853;SDS011;9556;49.374;19.446;2023-02-24T08:53:17;4.50;;;2.53;;
18853;SDS011;9556;49.374;19.446;2023-02-24T08:55:44;2.20;;;2.00;;
18853;SDS011;9556;49.374;19.446;2023-02-24T08:58:16;3.22;;;2.42;;
18853;SDS011;9556;49.374;19.446;2023-02-24T09:00:43;4.55;;;2.53;;
18853;SDS011;9556;49.374;19.446;2023-02-24T09:03:20;3.97;;;2.40;;
18853;SDS011;9556;49.374;19.446;2023-02-24T09:06:01;3.45;;;2.38;;
18853;SDS011;9556;49.374;19.446;2023-02-24T09:08:29;4.15;;;2.38;;
18853;SDS011;9556;49.374;19.446;2023-02-24T09:11:03;5.90;;;2.30;;
18853;SDS011;9556;49.374;19.446;2023-02-24T09:13:32;5.80;;;2.50;;
18853;SDS011;9556;49.374;19.446;2023-02-24T09:15:59;2.83;;;2.13;;
18853;SDS011;9556;49.374;19.446;2023-02-24T09:18:28;2.40;;;2.20;;
18853;SDS011;9556;49.374;19.446;2023-02-24T09:21:06;3.33;;;2.40;;
18853;SDS011;9556;49.374;19.446;2023-02-24T09:23:47;3.33;;;2.63;;
18853;SDS011;9556;49.374;19.446;2023-02-24T09:26:14;4.10;;;2.72;;
18853;SDS011;9556;49.374;19.446;2023-02-24T09:28:41;3.80;;;2.80;;
18853;SDS011;9556;49.374;19.446;2023-02-24T09:31:20;4.15;;;2.47;;
18853;SDS011;9556;49.374;19.446;2023-02-24T09:33:49;3.45;;;2.60;;
18853;SDS011;9556;49.374;19.446;2023-02-24T09:36:17;2.78;;;2.20;;
18853;SDS011;9556;49.374;19.446;2023-02-24T09:38:55;4.78;;;2.25;;
18853;SDS011;9556;49.374;19.446;2023-02-24T09:41:35;4.68;;;2.28;;
18853;SDS011;9556;49.374;19.446;2023-02-24T09:44:16;6.25;;;2.30;;
18853;SDS011;9556;49.374;19.446;2023-02-24T09:46:48;5.65;;;2.20;;
18853;SDS011;9556;49.374;19.446;2023-02-24T09:49:21;6.47;;;2.80;;
18853;SDS011;9556;49.374;19.446;2023-02-24T09:51:49;11.75;;;3.58;;
18853;SDS011;9556;49.374;19.446;2023-02-24T09:54:26;16.90;;;4.40;;
18853;SDS011;9556;49.374;19.446;2023-02-24T09:56:57;16.65;;;4.68;;
18853;SDS011;9556;49.374;19.446;2023-02-24T09:59:34;13.18;;;4.78;;
18853;SDS011;9556;49.374;19.446;2023-02-24T10:02:08;21.48;;;5.25;;
18853;SDS011;9556;49.374;19.446;2023-02-24T10:04:45;13.20;;;5.10;;
18853;SDS011;9556;49.374;19.446;2023-02-24T10:07:19;20.00;;;6.20;;
18853;SDS011;9556;49.374;19.446;2023-02-24T10:09:53;21.83;;;6.22;;
18853;SDS011;9556;49.374;19.446;2023-02-24T10:12:42;16.92;;;6.18;;
18853;SDS011;9556;49.374;19.446;2023-02-24T10:15:11;15.25;;;6.15;;
18853;SDS011;9556;49.374;19.446;2023-02-24T10:17:57;18.90;;;6.25;;
18853;SDS011;9556;49.374;19.446;2023-02-24T10:20:30;19.35;;;7.10;;
18853;SDS011;9556;49.374;19.446;2023-02-24T10:23:11;14.68;;;6.18;;
18853;SDS011;9556;49.374;19.446;2023-02-24T10:25:41;13.60;;;6.05;;
18853;SDS011;9556;49.374;19.446;2023-02-24T10:28:23;16.42;;;5.82;;
18853;SDS011;9556;49.374;19.446;2023-02-24T10:31:01;12.37;;;5.53;;
18853;SDS011;9556;49.374;19.446;2023-02-24T10:33:34;11.77;;;5.75;;
18853;SDS011;9556;49.374;19.446;2023-02-24T10:36:05;11.48;;;4.90;;
18853;SDS011;9556;49.374;19.446;2023-02-24T10:38:33;11.20;;;4.38;;
18853;SDS011;9556;49.374;19.446;2023-02-24T10:41:00;13.45;;;4.60;;
18853;SDS011;9556;49.374;19.446;2023-02-24T10:43:30;12.32;;;4.18;;
18853;SDS011;9556;49.374;19.446;2023-02-24T10:46:17;9.23;;;4.28;;
18853;SDS011;9556;49.374;19.446;2023-02-24T10:48:49;13.52;;;4.50;;
18853;SDS011;9556;49.374;19.446;2023-02-24T10:51:18;7.88;;;4.28;;
18853;SDS011;9556;49.374;19.446;2023-02-24T10:53:47;9.95;;;4.65;;
18853;SDS011;9556;49.374;19.446;2023-02-24T10:56:33;11.07;;;4.70;;
18853;SDS011;9556;49.374;19.446;2023-02-24T10:59:09;9.60;;;4.63;;
18853;SDS011;9556;49.374;19.446;2023-02-24T11:02:15;11.88;;;4.20;;
18853;SDS011;9556;49.374;19.446;2023-02-24T11:04:54;10.15;;;4.65;;
18853;SDS011;9556;49.374;19.446;2023-02-24T11:07:50;8.70;;;4.10;;
18853;SDS011;9556;49.374;19.446;2023-02-24T11:10:31;10.70;;;4.60;;
18853;SDS011;9556;49.374;19.446;2023-02-24T11:13:17;9.30;;;4.07;;
18853;SDS011;9556;49.374;19.446;2023-02-24T11:16:02;8.48;;;4.10;;
18853;SDS011;9556;49.374;19.446;2023-02-24T11:18:47;6.85;;;3.78;;
18853;SDS011;9556;49.374;19.446;2023-02-24T11:21:16;10.18;;;4.65;;
18853;SDS011;9556;49.374;19.446;2023-02-24T11:23:45;8.70;;;4.20;;
18853;SDS011;9556;49.374;19.446;2023-02-24T11:26:14;7.32;;;4.32;;
18853;SDS011;9556;49.374;19.446;2023-02-24T11:28:45;7.03;;;4.22;;
18853;SDS011;9556;49.374;19.446;2023-02-24T11:31:21;8.38;;;4.13;;
18853;SDS011;9556;49.374;19.446;2023-02-24T11:33:57;7.88;;;4.47;;
18853;SDS011;9556;49.374;19.446;2023-02-24T11:36:29;8.32;;;4.07;;
18853;SDS011;9556;49.374;19.446;2023-02-24T11:39:04;7.68;;;3.63;;
18853;SDS011;9556;49.374;19.446;2023-02-24T11:41:34;6.32;;;3.90;;
18853;SDS011;9556;49.374;19.446;2023-02-24T11:44:04;6.35;;;3.53;;
18853;SDS011;9556;49.374;19.446;2023-02-24T11:46:34;7.38;;;3.80;;
18853;SDS011;9556;49.374;19.446;2023-02-24T11:49:02;7.13;;;3.60;;
18853;SDS011;9556;49.374;19.446;2023-02-24T11:51:33;9.20;;;3.90;;
18853;SDS011;9556;49.374;19.446;2023-02-24T11:54:04;7.10;;;3.70;;
18853;SDS011;9556;49.374;19.446;2023-02-24T11:56:32;7.78;;;3.65;;
18853;SDS011;9556;49.374;19.446;2023-02-24T11:59:00;6.50;;;3.42;;
18853;SDS011;9556;49.374;19.446;2023-02-24T12:01:31;7.75;;;3.78;;
18853;SDS011;9556;49.374;19.446;2023-02-24T12:04:04;8.82;;;3.92;;
18853;SDS011;9556;49.374;19.446;2023-02-24T12:06:35;6.60;;;3.83;;
18853;SDS011;9556;49.374;19.446;2023-02-24T12:09:06;4.50;;;3.30;;
18853;SDS011;9556;49.374;19.446;2023-02-24T12:11:38;5.50;;;3.55;;
18853;SDS011;9556;49.374;19.446;2023-02-24T12:14:14;7.93;;;3.88;;
18853;SDS011;9556;49.374;19.446;2023-02-24T12:16:46;6.80;;;3.90;;
18853;SDS011;9556;49.374;19.446;2023-02-24T12:19:15;6.70;;;4.30;;
18853;SDS011;9556;49.374;19.446;2023-02-24T12:21:44;6.03;;;4.15;;
18853;SDS011;9556;49.374;19.446;2023-02-24T12:24:19;5.68;;;4.22;;
18853;SDS011;9556;49.374;19.446;2023-02-24T12:27:05;8.27;;;3.63;;
18853;SDS011;9556;49.374;19.446;2023-02-24T12:32:50;5.60;;;3.30;;
18853;SDS011;9556;49.374;19.446;2023-02-24T12:35:24;8.05;;;3.70;;
18853;SDS011;9556;49.374;19.446;2023-02-24T12:37:58;4.50;;;3.10;;
18853;SDS011;9556;49.374;19.446;2023-02-24T12:40:34;5.32;;;3.10;;
18853;SDS011;9556;49.374;19.446;2023-02-24T12:43:12;5.87;;;2.90;;
18853;SDS011;9556;49.374;19.446;2023-02-24T12:45:47;5.40;;;3.17;;
18853;SDS011;9556;49.374;19.446;2023-02-24T12:48:26;7.13;;;2.83;;
18853;SDS011;9556;49.374;19.446;2023-02-24T12:50:55;5.40;;;2.92;;
18853;SDS011;9556;49.374;19.446;2023-02-24T12:53:27;6.47;;;2.95;;
18853;SDS011;9556;49.374;19.446;2023-02-24T12:56:00;5.10;;;2.88;;
18853;SDS011;9556;49.374;19.446;2023-02-24T12:58:29;6.07;;;3.15;;
18853;SDS011;9556;49.374;19.446;2023-02-24T13:01:00;5.07;;;2.57;;
18853;SDS011;9556;49.374;19.446;2023-02-24T13:03:35;6.40;;;2.85;;
18853;SDS011;9556;49.374;19.446;2023-02-24T13:06:07;6.68;;;2.95;;
18853;SDS011;9556;49.374;19.446;2023-02-24T13:08:39;4.57;;;2.80;;
18853;SDS011;9556;49.374;19.446;2023-02-24T13:11:12;4.13;;;2.40;;
18853;SDS011;9556;49.374;19.446;2023-02-24T13:13:43;4.57;;;2.47;;
18853;SDS011;9556;49.374;19.446;2023-02-24T13:16:13;3.35;;;2.58;;
18853;SDS011;9556;49.374;19.446;2023-02-24T13:18:40;4.57;;;2.60;;
18853;SDS011;9556;49.374;19.446;2023-02-24T13:21:17;5.13;;;2.67;;
18853;SDS011;9556;49.374;19.446;2023-02-24T13:23:51;5.10;;;2.65;;
18853;SDS011;9556;49.374;19.446;2023-02-24T13:26:24;4.87;;;2.70;;
18853;SDS011;9556;49.374;19.446;2023-02-24T13:28:57;5.80;;;2.45;;
18853;SDS011;9556;49.374;19.446;2023-02-24T13:31:24;5.07;;;2.85;;
18853;SDS011;9556;49.374;19.446;2023-02-24T13:33:52;3.95;;;2.88;;
18853;SDS011;9556;49.374;19.446;2023-02-24T13:36:20;4.60;;;2.70;;
18853;SDS011;9556;49.374;19.446;2023-02-24T13:38:48;7.25;;;3.08;;
18853;SDS011;9556;49.374;19.446;2023-02-24T13:41:19;6.43;;;2.90;;
18853;SDS011;9556;49.374;19.446;2023-02-24T13:43:55;4.38;;;2.80;;
18853;SDS011;9556;49.374;19.446;2023-02-24T13:46:23;3.85;;;2.50;;
18853;SDS011;9556;49.374;19.446;2023-02-24T13:51:51;7.15;;;2.70;;
18853;SDS011;9556;49.374;19.446;2023-02-24T13:54:22;6.77;;;2.73;;
18853;SDS011;9556;49.374;19.446;2023-02-24T13:56:54;5.20;;;2.72;;
18853;SDS011;9556;49.374;19.446;2023-02-24T13:59:28;4.40;;;2.73;;
18853;SDS011;9556;49.374;19.446;2023-02-24T14:02:00;4.45;;;2.70;;
18853;SDS011;9556;49.374;19.446;2023-02-24T14:04:29;6.38;;;3.05;;
18853;SDS011;9556;49.374;19.446;2023-02-24T14:06:57;7.13;;;2.88;;
18853;SDS011;9556;49.374;19.446;2023-02-24T14:09:27;3.85;;;2.55;;
18853;SDS011;9556;49.374;19.446;2023-02-24T14:11:57;3.53;;;2.53;;
18853;SDS011;9556;49.374;19.446;2023-02-24T14:14:26;5.80;;;2.33;;
18853;SDS011;9556;49.374;19.446;2023-02-24T14:16:54;5.38;;;2.50;;
18853;SDS011;9556;49.374;19.446;2023-02-24T14:19:23;5.40;;;2.45;;
18853;SDS011;9556;49.374;19.446;2023-02-24T14:21:51;4.38;;;2.67;;
18853;SDS011;9556;49.374;19.446;2023-02-24T14:24:19;3.88;;;2.30;;
18853;SDS011;9556;49.374;19.446;2023-02-24T14:26:47;5.88;;;2.20;;
18853;SDS011;9556;49.374;19.446;2023-02-24T14:29:17;3.35;;;2.20;;
18853;SDS011;9556;49.374;19.446;2023-02-24T14:31:47;3.73;;;2.30;;
18853;SDS011;9556;49.374;19.446;2023-02-24T14:34:15;3.63;;;2.25;;
18853;SDS011;9556;49.374;19.446;2023-02-24T14:36:44;3.45;;;2.20;;
18853;SDS011;9556;49.374;19.446;2023-02-24T14:39:12;5.43;;;2.50;;
18853;SDS011;9556;49.374;19.446;2023-02-24T14:41:41;5.10;;;2.60;;
18853;SDS011;9556;49.374;19.446;2023-02-24T14:44:16;5.27;;;2.60;;
18853;SDS011;9556;49.374;19.446;2023-02-24T14:46:44;4.20;;;2.50;;
18853;SDS011;9556;49.374;19.446;2023-02-24T14:49:15;4.38;;;2.50;;
18853;SDS011;9556;49.374;19.446;2023-02-24T14:51:44;6.45;;;2.90;;
18853;SDS011;9556;49.374;19.446;2023-02-24T14:54:13;5.72;;;2.60;;
18853;SDS011;9556;49.374;19.446;2023-02-24T14:56:44;3.63;;;2.70;;
18853;SDS011;9556;49.374;19.446;2023-02-24T14:59:14;7.13;;;3.15;;
18853;SDS011;9556;49.374;19.446;2023-02-24T15:01:42;5.82;;;2.80;;
18853;SDS011;9556;49.374;19.446;2023-02-24T15:04:12;4.28;;;2.95;;
18853;SDS011;9556;49.374;19.446;2023-02-24T15:06:41;3.83;;;2.65;;
18853;SDS011;9556;49.374;19.446;2023-02-24T15:09:10;4.50;;;2.70;;
18853;SDS011;9556;49.374;19.446;2023-02-24T15:11:38;4.17;;;2.50;;
18853;SDS011;9556;49.374;19.446;2023-02-24T15:14:06;6.22;;;2.53;;
18853;SDS011;9556;49.374;19.446;2023-02-24T15:16:42;6.10;;;2.72;;
18853;SDS011;9556;49.374;19.446;2023-02-24T15:19:18;4.88;;;3.25;;
18853;SDS011;9556;49.374;19.446;2023-02-24T15:21:49;4.25;;;2.40;;